sensor_id;sensor_type;location;lat;lon;timestamp;P1;durP1;ratioP1;P2;durP2;ratioP2
51987;SDS011;38003;52.012;4.346;2024-02-16T00:02:02;3.80;;;2.80;;
51987;SDS011;38003;52.012;4.346;2024-02-16T00:04:30;4.50;;;2.67;;
51987;SDS011;38003;52.012;4.346;2024-02-16T00:06:59;5.50;;;4.00;;
51987;SDS011;38003;52.012;4.346;2024-02-16T00:09:27;5.23;;;2.47;;
51987;SDS011;38003;52.012;4.346;2024-02-16T00:11:57;4.27;;;2.77;;
51987;SDS011;38003;52.012;4.346;2024-02-16T00:14:25;4.33;;;3.00;;
51987;SDS011;38003;52.012;4.346;2024-02-16T00:16:53;4.53;;;2.70;;
51987;SDS011;38003;52.012;4.346;2024-02-16T00:19:22;6.30;;;3.20;;
51987;SDS011;38003;52.012;4.346;2024-02-16T00:21:50;4.77;;;2.80;;
51987;SDS011;38003;52.012;4.346;2024-02-16T00:24:18;4.60;;;3.07;;
51987;SDS011;38003;52.012;4.346;2024-02-16T00:26:47;4.97;;;3.20;;
51987;SDS011;38003;52.012;4.346;2024-02-16T00:29:17;3.33;;;2.70;;
51987;SDS011;38003;52.012;4.346;2024-02-16T00:31:45;3.33;;;2.70;;
51987;SDS011;38003;52.012;4.346;2024-02-16T00:34:13;5.40;;;3.20;;
51987;SDS011;38003;52.012;4.346;2024-02-16T00:36:41;4.67;;;2.97;;
51987;SDS011;38003;52.012;4.346;2024-02-16T00:39:10;5.50;;;3.33;;
51987;SDS011;38003;52.012;4.346;2024-02-16T00:41:38;4.17;;;2.90;;
51987;SDS011;38003;52.012;4.346;2024-02-16T00:44:07;3.80;;;3.03;;
51987;SDS011;38003;52.012;4.346;2024-02-16T00:46:36;4.23;;;2.90;;
51987;SDS011;38003;52.012;4.346;2024-02-16T00:49:05;4.47;;;2.93;;
51987;SDS011;38003;52.012;4.346;2024-02-16T00:51:33;4.73;;;2.97;;
51987;SDS011;38003;52.012;4.346;2024-02-16T00:54:01;3.77;;;2.90;;
51987;SDS011;38003;52.012;4.346;2024-02-16T00:56:30;4.33;;;3.10;;
51987;SDS011;38003;52.012;4.346;2024-02-16T00:58:58;3.83;;;2.83;;
51987;SDS011;38003;52.012;4.346;2024-02-16T01:01:27;5.97;;;3.47;;
51987;SDS011;38003;52.012;4.346;2024-02-16T01:03:57;3.77;;;3.10;;
51987;SDS011;38003;52.012;4.346;2024-02-16T01:06:25;4.77;;;2.83;;
51987;SDS011;38003;52.012;4.346;2024-02-16T01:08:53;8.70;;;3.47;;
51987;SDS011;38003;52.012;4.346;2024-02-16T01:11:23;4.40;;;3.17;;
51987;SDS011;38003;52.012;4.346;2024-02-16T01:13:52;3.90;;;2.97;;
51987;SDS011;38003;52.012;4.346;2024-02-16T01:16:20;4.83;;;3.10;;
51987;SDS011;38003;52.012;4.346;2024-02-16T01:18:48;4.37;;;3.17;;
51987;SDS011;38003;52.012;4.346;2024-02-16T01:21:18;5.60;;;3.47;;
51987;SDS011;38003;52.012;4.346;2024-02-16T01:23:46;3.93;;;3.40;;
51987;SDS011;38003;52.012;4.346;2024-02-16T01:26:14;4.90;;;3.40;;
51987;SDS011;38003;52.012;4.346;2024-02-16T01:28:43;6.37;;;3.43;;
51987;SDS011;38003;52.012;4.346;2024-02-16T01:31:11;6.80;;;3.57;;
51987;SDS011;38003;52.012;4.346;2024-02-16T01:33:39;4.63;;;3.00;;
51987;SDS011;38003;52.012;4.346;2024-02-16T01:36:08;4.17;;;2.67;;
51987;SDS011;38003;52.012;4.346;2024-02-16T01:38:38;5.27;;;3.17;;
51987;SDS011;38003;52.012;4.346;2024-02-16T01:41:06;5.30;;;3.53;;
51987;SDS011;38003;52.012;4.346;2024-02-16T01:43:35;4.37;;;3.27;;
51987;SDS011;38003;52.012;4.346;2024-02-16T01:46:03;5.00;;;3.27;;
51987;SDS011;38003;52.012;4.346;2024-02-16T01:48:31;5.70;;;2.93;;
51987;SDS011;38003;52.012;4.346;2024-02-16T01:51:00;4.67;;;3.13;;
51987;SDS011;38003;52.012;4.346;2024-02-16T01:53:28;6.07;;;3.33;;
51987;SDS011;38003;52.012;4.346;2024-02-16T01:55:58;5.23;;;3.00;;
51987;SDS011;38003;52.012;4.346;2024-02-16T01:58:27;4.63;;;3.00;;
51987;SDS011;38003;52.012;4.346;2024-02-16T02:00:55;6.00;;;3.10;;
51987;SDS011;38003;52.012;4.346;2024-02-16T02:03:23;5.83;;;3.20;;
51987;SDS011;38003;52.012;4.346;2024-02-16T02:05:52;4.93;;;2.80;;
51987;SDS011;38003;52.012;4.346;2024-02-16T02:08:21;7.00;;;3.07;;
51987;SDS011;38003;52.012;4.346;2024-02-16T02:10:50;4.57;;;3.10;;
51987;SDS011;38003;52.012;4.346;2024-02-16T02:13:19;6.47;;;3.17;;
51987;SDS011;38003;52.012;4.346;2024-02-16T02:15:48;6.40;;;3.10;;
51987;SDS011;38003;52.012;4.346;2024-02-16T02:18:17;4.43;;;3.40;;
51987;SDS011;38003;52.012;4.346;2024-02-16T02:20:45;5.27;;;3.70;;
51987;SDS011;38003;52.012;4.346;2024-02-16T02:23:15;5.13;;;3.50;;
51987;SDS011;38003;52.012;4.346;2024-02-16T02:25:43;4.77;;;3.13;;
51987;SDS011;38003;52.012;4.346;2024-02-16T02:28:11;6.07;;;3.17;;
51987;SDS011;38003;52.012;4.346;2024-02-16T02:30:40;5.33;;;3.20;;
51987;SDS011;38003;52.012;4.346;2024-02-16T02:33:08;5.27;;;3.20;;
51987;SDS011;38003;52.012;4.346;2024-02-16T02:35:37;6.37;;;3.43;;
51987;SDS011;38003;52.012;4.346;2024-02-16T02:38:06;4.93;;;3.20;;
51987;SDS011;38003;52.012;4.346;2024-02-16T02:40:35;5.43;;;3.33;;
51987;SDS011;38003;52.012;4.346;2024-02-16T02:43:04;6.23;;;3.47;;
51987;SDS011;38003;52.012;4.346;2024-02-16T02:45:32;4.50;;;3.40;;
51987;SDS011;38003;52.012;4.346;2024-02-16T02:48:01;4.23;;;3.20;;
51987;SDS011;38003;52.012;4.346;2024-02-16T02:50:29;4.23;;;3.20;;
51987;SDS011;38003;52.012;4.346;2024-02-16T02:52:58;4.30;;;3.10;;
51987;SDS011;38003;52.012;4.346;2024-02-16T02:55:26;6.90;;;3.50;;
51987;SDS011;38003;52.012;4.346;2024-02-16T02:57:56;6.17;;;3.30;;
51987;SDS011;38003;52.012;4.346;2024-02-16T03:00:24;4.60;;;3.23;;
51987;SDS011;38003;52.012;4.346;2024-02-16T03:02:52;3.60;;;3.00;;
51987;SDS011;38003;52.012;4.346;2024-02-16T03:05:20;4.73;;;3.20;;
51987;SDS011;38003;52.012;4.346;2024-02-16T03:07:49;4.20;;;3.40;;
51987;SDS011;38003;52.012;4.346;2024-02-16T03:10:17;4.83;;;3.07;;
51987;SDS011;38003;52.012;4.346;2024-02-16T03:12:48;4.40;;;3.30;;
51987;SDS011;38003;52.012;4.346;2024-02-16T03:15:18;5.13;;;3.57;;
51987;SDS011;38003;52.012;4.346;2024-02-16T03:17:46;5.03;;;3.40;;
51987;SDS011;38003;52.012;4.346;2024-02-16T03:20:14;3.70;;;3.30;;
51987;SDS011;38003;52.012;4.346;2024-02-16T03:22:43;5.30;;;3.37;;
51987;SDS011;38003;52.012;4.346;2024-02-16T03:25:11;5.47;;;3.80;;
51987;SDS011;38003;52.012;4.346;2024-02-16T03:27:39;4.57;;;3.33;;
51987;SDS011;38003;52.012;4.346;2024-02-16T03:30:08;4.80;;;3.17;;
51987;SDS011;38003;52.012;4.346;2024-02-16T03:32:38;5.70;;;3.40;;
51987;SDS011;38003;52.012;4.346;2024-02-16T03:35:06;3.97;;;3.23;;
51987;SDS011;38003;52.012;4.346;2024-02-16T03:37:35;5.47;;;3.97;;
51987;SDS011;38003;52.012;4.346;2024-02-16T03:40:04;5.90;;;4.03;;
51987;SDS011;38003;52.012;4.346;2024-02-16T03:42:33;4.53;;;3.47;;
51987;SDS011;38003;52.012;4.346;2024-02-16T03:45:01;5.83;;;3.80;;
51987;SDS011;38003;52.012;4.346;2024-02-16T03:47:30;5.83;;;3.60;;
51987;SDS011;38003;52.012;4.346;2024-02-16T03:49:59;7.17;;;3.53;;
51987;SDS011;38003;52.012;4.346;2024-02-16T03:52:28;4.53;;;3.53;;
51987;SDS011;38003;52.012;4.346;2024-02-16T03:54:57;6.13;;;3.57;;
51987;SDS011;38003;52.012;4.346;2024-02-16T03:57:25;5.83;;;3.53;;
51987;SDS011;38003;52.012;4.346;2024-02-16T03:59:54;6.27;;;3.73;;
51987;SDS011;38003;52.012;4.346;2024-02-16T04:02:22;7.03;;;4.20;;
51987;SDS011;38003;52.012;4.346;2024-02-16T04:04:50;5.60;;;4.20;;
51987;SDS011;38003;52.012;4.346;2024-02-16T04:07:20;7.17;;;3.77;;
51987;SDS011;38003;52.012;4.346;2024-02-16T04:09:48;5.93;;;4.07;;
51987;SDS011;38003;52.012;4.346;2024-02-16T04:12:16;7.03;;;4.57;;
51987;SDS011;38003;52.012;4.346;2024-02-16T04:14:45;4.57;;;3.90;;
51987;SDS011;38003;52.012;4.346;2024-02-16T04:17:13;7.33;;;4.17;;
51987;SDS011;38003;52.012;4.346;2024-02-16T04:19:41;5.20;;;3.70;;
51987;SDS011;38003;52.012;4.346;2024-02-16T04:22:10;5.20;;;4.00;;
51987;SDS011;38003;52.012;4.346;2024-02-16T04:24:40;5.33;;;3.90;;
51987;SDS011;38003;52.012;4.346;2024-02-16T04:27:08;4.47;;;3.67;;
51987;SDS011;38003;52.012;4.346;2024-02-16T04:29:36;5.57;;;3.97;;
51987;SDS011;38003;52.012;4.346;2024-02-16T04:32:05;7.27;;;4.00;;
51987;SDS011;38003;52.012;4.346;2024-02-16T04:34:34;6.90;;;4.03;;
51987;SDS011;38003;52.012;4.346;2024-02-16T04:37:02;7.03;;;4.43;;
51987;SDS011;38003;52.012;4.346;2024-02-16T04:39:30;5.60;;;3.80;;
51987;SDS011;38003;52.012;4.346;2024-02-16T04:42:00;7.20;;;4.00;;
51987;SDS011;38003;52.012;4.346;2024-02-16T04:44:29;6.20;;;4.10;;
51987;SDS011;38003;52.012;4.346;2024-02-16T04:46:57;4.83;;;3.90;;
51987;SDS011;38003;52.012;4.346;2024-02-16T04:49:25;7.63;;;4.10;;
51987;SDS011;38003;52.012;4.346;2024-02-16T04:51:54;6.07;;;4.13;;
51987;SDS011;38003;52.012;4.346;2024-02-16T04:54:22;5.80;;;4.40;;
51987;SDS011;38003;52.012;4.346;2024-02-16T04:56:51;5.50;;;4.10;;
51987;SDS011;38003;52.012;4.346;2024-02-16T04:59:20;6.27;;;4.63;;
51987;SDS011;38003;52.012;4.346;2024-02-16T05:01:49;8.80;;;4.87;;
51987;SDS011;38003;52.012;4.346;2024-02-16T05:04:17;7.67;;;4.40;;
51987;SDS011;38003;52.012;4.346;2024-02-16T05:06:46;6.60;;;4.50;;
51987;SDS011;38003;52.012;4.346;2024-02-16T05:09:14;7.90;;;4.50;;
51987;SDS011;38003;52.012;4.346;2024-02-16T05:11:43;7.20;;;4.37;;
51987;SDS011;38003;52.012;4.346;2024-02-16T05:14:11;8.47;;;4.67;;
51987;SDS011;38003;52.012;4.346;2024-02-16T05:16:43;8.07;;;4.77;;
51987;SDS011;38003;52.012;4.346;2024-02-16T05:19:12;7.87;;;4.87;;
51987;SDS011;38003;52.012;4.346;2024-02-16T05:21:40;6.13;;;5.00;;
51987;SDS011;38003;52.012;4.346;2024-02-16T05:24:09;7.53;;;5.00;;
51987;SDS011;38003;52.012;4.346;2024-02-16T05:26:37;6.33;;;5.00;;
51987;SDS011;38003;52.012;4.346;2024-02-16T05:29:05;7.33;;;5.00;;
51987;SDS011;38003;52.012;4.346;2024-02-16T05:31:33;6.30;;;4.87;;
51987;SDS011;38003;52.012;4.346;2024-02-16T05:34:03;5.77;;;4.60;;
51987;SDS011;38003;52.012;4.346;2024-02-16T05:36:31;7.10;;;5.23;;
51987;SDS011;38003;52.012;4.346;2024-02-16T05:39:02;6.07;;;5.17;;
51987;SDS011;38003;52.012;4.346;2024-02-16T05:41:46;7.40;;;5.10;;
51987;SDS011;38003;52.012;4.346;2024-02-16T05:44:15;6.77;;;4.57;;
51987;SDS011;38003;52.012;4.346;2024-02-16T05:46:44;6.70;;;4.83;;
51987;SDS011;38003;52.012;4.346;2024-02-16T05:49:14;6.77;;;5.10;;
51987;SDS011;38003;52.012;4.346;2024-02-16T05:51:42;6.43;;;5.17;;
51987;SDS011;38003;52.012;4.346;2024-02-16T05:54:29;6.30;;;4.63;;
51987;SDS011;38003;52.012;4.346;2024-02-16T05:57:00;6.57;;;4.70;;
51987;SDS011;38003;52.012;4.346;2024-02-16T05:59:30;6.57;;;5.07;;
51987;SDS011;38003;52.012;4.346;2024-02-16T06:01:59;5.70;;;4.83;;
51987;SDS011;38003;52.012;4.346;2024-02-16T06:04:28;8.43;;;5.33;;
51987;SDS011;38003;52.012;4.346;2024-02-16T06:06:57;5.57;;;4.83;;
51987;SDS011;38003;52.012;4.346;2024-02-16T06:09:25;7.77;;;5.60;;
51987;SDS011;38003;52.012;4.346;2024-02-16T06:12:00;6.00;;;4.90;;
51987;SDS011;38003;52.012;4.346;2024-02-16T06:14:30;6.63;;;5.30;;
51987;SDS011;38003;52.012;4.346;2024-02-16T06:16:59;8.13;;;5.50;;
51987;SDS011;38003;52.012;4.346;2024-02-16T06:19:28;7.63;;;5.23;;
51987;SDS011;38003;52.012;4.346;2024-02-16T06:21:57;8.67;;;5.50;;
51987;SDS011;38003;52.012;4.346;2024-02-16T06:24:25;9.53;;;6.40;;
51987;SDS011;38003;52.012;4.346;2024-02-16T06:26:53;5.97;;;5.37;;
51987;SDS011;38003;52.012;4.346;2024-02-16T06:29:23;7.40;;;5.57;;
51987;SDS011;38003;52.012;4.346;2024-02-16T06:31:51;6.87;;;6.00;;
51987;SDS011;38003;52.012;4.346;2024-02-16T06:34:20;7.40;;;6.10;;
51987;SDS011;38003;52.012;4.346;2024-02-16T06:36:49;7.00;;;6.30;;
51987;SDS011;38003;52.012;4.346;2024-02-16T06:39:18;6.90;;;6.20;;
51987;SDS011;38003;52.012;4.346;2024-02-16T06:41:46;7.97;;;6.37;;
51987;SDS011;38003;52.012;4.346;2024-02-16T06:44:15;7.83;;;6.07;;
51987;SDS011;38003;52.012;4.346;2024-02-16T06:46:48;6.43;;;5.93;;
51987;SDS011;38003;52.012;4.346;2024-02-16T06:49:17;9.27;;;6.40;;
51987;SDS011;38003;52.012;4.346;2024-02-16T06:51:45;7.63;;;6.93;;
51987;SDS011;38003;52.012;4.346;2024-02-16T06:54:15;7.40;;;6.67;;
51987;SDS011;38003;52.012;4.346;2024-02-16T06:56:43;8.43;;;7.47;;
51987;SDS011;38003;52.012;4.346;2024-02-16T06:59:11;8.17;;;7.37;;
51987;SDS011;38003;52.012;4.346;2024-02-16T07:01:39;8.57;;;7.77;;
51987;SDS011;38003;52.012;4.346;2024-02-16T07:04:08;9.57;;;8.17;;
51987;SDS011;38003;52.012;4.346;2024-02-16T07:06:36;9.77;;;8.00;;
51987;SDS011;38003;52.012;4.346;2024-02-16T07:09:05;8.70;;;7.90;;
51987;SDS011;38003;52.012;4.346;2024-02-16T07:11:35;9.33;;;8.60;;
51987;SDS011;38003;52.012;4.346;2024-02-16T07:14:04;16.37;;;14.23;;
51987;SDS011;38003;52.012;4.346;2024-02-16T07:16:33;11.70;;;10.90;;
51987;SDS011;38003;52.012;4.346;2024-02-16T07:19:01;11.73;;;10.53;;
51987;SDS011;38003;52.012;4.346;2024-02-16T07:21:31;12.10;;;10.97;;
51987;SDS011;38003;52.012;4.346;2024-02-16T07:24:00;10.33;;;9.33;;
51987;SDS011;38003;52.012;4.346;2024-02-16T07:26:29;10.73;;;9.60;;
51987;SDS011;38003;52.012;4.346;2024-02-16T07:28:58;11.37;;;10.43;;
51987;SDS011;38003;52.012;4.346;2024-02-16T07:31:30;12.47;;;11.17;;
51987;SDS011;38003;52.012;4.346;2024-02-16T07:33:58;12.60;;;11.50;;
51987;SDS011;38003;52.012;4.346;2024-02-16T07:36:27;12.93;;;11.93;;
51987;SDS011;38003;52.012;4.346;2024-02-16T07:38:55;14.10;;;13.20;;
51987;SDS011;38003;52.012;4.346;2024-02-16T07:41:24;14.83;;;13.73;;
51987;SDS011;38003;52.012;4.346;2024-02-16T07:43:53;13.57;;;12.37;;
51987;SDS011;38003;52.012;4.346;2024-02-16T07:46:23;15.10;;;13.93;;
51987;SDS011;38003;52.012;4.346;2024-02-16T07:48:51;15.40;;;14.20;;
51987;SDS011;38003;52.012;4.346;2024-02-16T07:51:19;16.67;;;15.50;;
51987;SDS011;38003;52.012;4.346;2024-02-16T07:53:48;16.77;;;15.57;;
51987;SDS011;38003;52.012;4.346;2024-02-16T07:56:16;20.10;;;18.70;;
51987;SDS011;38003;52.012;4.346;2024-02-16T07:58:46;20.00;;;18.50;;
51987;SDS011;38003;52.012;4.346;2024-02-16T08:01:14;24.93;;;23.43;;
51987;SDS011;38003;52.012;4.346;2024-02-16T08:03:43;31.13;;;29.23;;
51987;SDS011;38003;52.012;4.346;2024-02-16T08:06:12;37.40;;;35.27;;
51987;SDS011;38003;52.012;4.346;2024-02-16T08:08:41;48.37;;;45.90;;
51987;SDS011;38003;52.012;4.346;2024-02-16T08:11:09;48.27;;;45.53;;
51987;SDS011;38003;52.012;4.346;2024-02-16T08:13:37;54.70;;;51.97;;
51987;SDS011;38003;52.012;4.346;2024-02-16T08:16:05;58.13;;;55.07;;
51987;SDS011;38003;52.012;4.346;2024-02-16T08:18:34;61.20;;;58.10;;
51987;SDS011;38003;52.012;4.346;2024-02-16T08:21:04;60.20;;;57.00;;
51987;SDS011;38003;52.012;4.346;2024-02-16T08:23:32;61.73;;;58.60;;
51987;SDS011;38003;52.012;4.346;2024-02-16T08:26:00;64.37;;;60.97;;
51987;SDS011;38003;52.012;4.346;2024-02-16T08:28:29;69.90;;;66.30;;
51987;SDS011;38003;52.012;4.346;2024-02-16T08:30:57;76.53;;;72.67;;
51987;SDS011;38003;52.012;4.346;2024-02-16T08:33:25;90.43;;;86.03;;
51987;SDS011;38003;52.012;4.346;2024-02-16T08:35:54;116.27;;;110.80;;
51987;SDS011;38003;52.012;4.346;2024-02-16T08:38:24;118.63;;;113.30;;
51987;SDS011;38003;52.012;4.346;2024-02-16T08:40:52;118.20;;;113.03;;
51987;SDS011;38003;52.012;4.346;2024-02-16T08:43:20;123.27;;;117.83;;
51987;SDS011;38003;52.012;4.346;2024-02-16T08:45:49;114.73;;;109.57;;
51987;SDS011;38003;52.012;4.346;2024-02-16T08:48:17;113.17;;;107.93;;
51987;SDS011;38003;52.012;4.346;2024-02-16T08:50:45;119.60;;;114.23;;
51987;SDS011;38003;52.012;4.346;2024-02-16T08:53:15;116.13;;;110.87;;
51987;SDS011;38003;52.012;4.346;2024-02-16T08:55:45;109.53;;;104.57;;
51987;SDS011;38003;52.012;4.346;2024-02-16T08:58:13;92.67;;;87.97;;
51987;SDS011;38003;52.012;4.346;2024-02-16T09:00:41;99.60;;;94.93;;
51987;SDS011;38003;52.012;4.346;2024-02-16T09:03:10;97.10;;;92.27;;
51987;SDS011;38003;52.012;4.346;2024-02-16T09:05:39;86.47;;;82.20;;
51987;SDS011;38003;52.012;4.346;2024-02-16T09:08:07;90.47;;;86.00;;
51987;SDS011;38003;52.012;4.346;2024-02-16T09:10:36;98.03;;;93.33;;
51987;SDS011;38003;52.012;4.346;2024-02-16T09:13:05;99.57;;;94.67;;
51987;SDS011;38003;52.012;4.346;2024-02-16T09:15:35;114.13;;;108.50;;
51987;SDS011;38003;52.012;4.346;2024-02-16T09:18:03;125.63;;;119.80;;
51987;SDS011;38003;52.012;4.346;2024-02-16T09:20:32;128.17;;;121.70;;
51987;SDS011;38003;52.012;4.346;2024-02-16T09:23:00;136.67;;;130.13;;
51987;SDS011;38003;52.012;4.346;2024-02-16T09:25:28;116.10;;;110.53;;
51987;SDS011;38003;52.012;4.346;2024-02-16T09:27:57;152.80;;;145.53;;
51987;SDS011;38003;52.012;4.346;2024-02-16T09:30:26;172.97;;;164.80;;
51987;SDS011;38003;52.012;4.346;2024-02-16T09:32:55;178.57;;;170.33;;
51987;SDS011;38003;52.012;4.346;2024-02-16T09:35:23;174.23;;;165.60;;
51987;SDS011;38003;52.012;4.346;2024-02-16T09:37:52;176.50;;;168.10;;
51987;SDS011;38003;52.012;4.346;2024-02-16T09:40:20;218.53;;;208.57;;
51987;SDS011;38003;52.012;4.346;2024-02-16T09:42:48;251.93;;;240.47;;
51987;SDS011;38003;52.012;4.346;2024-02-16T09:45:17;309.53;;;295.50;;
51987;SDS011;38003;52.012;4.346;2024-02-16T09:47:47;332.77;;;317.60;;
51987;SDS011;38003;52.012;4.346;2024-02-16T09:50:28;325.83;;;311.50;;
51987;SDS011;38003;52.012;4.346;2024-02-16T09:52:57;406.63;;;388.90;;
51987;SDS011;38003;52.012;4.346;2024-02-16T09:55:25;392.77;;;375.57;;
51987;SDS011;38003;52.012;4.346;2024-02-16T09:58:00;462.00;;;442.00;;
51987;SDS011;38003;52.012;4.346;2024-02-16T10:00:28;471.33;;;450.97;;
51987;SDS011;38003;52.012;4.346;2024-02-16T10:02:58;525.33;;;502.87;;
51987;SDS011;38003;52.012;4.346;2024-02-16T10:05:26;556.80;;;532.87;;
51987;SDS011;38003;52.012;4.346;2024-02-16T10:07:57;628.33;;;601.20;;
51987;SDS011;38003;52.012;4.346;2024-02-16T10:10:25;591.73;;;566.67;;
51987;SDS011;38003;52.012;4.346;2024-02-16T10:13:00;628.07;;;600.77;;
51987;SDS011;38003;52.012;4.346;2024-02-16T10:15:30;703.50;;;672.07;;
51987;SDS011;38003;52.012;4.346;2024-02-16T10:18:00;720.63;;;687.23;;
51987;SDS011;38003;52.012;4.346;2024-02-16T10:20:29;767.47;;;731.50;;
51987;SDS011;38003;52.012;4.346;2024-02-16T10:23:04;778.33;;;741.83;;
51987;SDS011;38003;52.012;4.346;2024-02-16T10:25:32;779.53;;;742.83;;
51987;SDS011;38003;52.012;4.346;2024-02-16T10:28:03;726.10;;;693.93;;
51987;SDS011;38003;52.012;4.346;2024-02-16T10:30:34;758.07;;;722.43;;
51987;SDS011;38003;52.012;4.346;2024-02-16T10:33:04;789.93;;;752.27;;
51987;SDS011;38003;52.012;4.346;2024-02-16T10:35:33;792.67;;;754.17;;
51987;SDS011;38003;52.012;4.346;2024-02-16T10:38:02;767.37;;;730.00;;
51987;SDS011;38003;52.012;4.346;2024-02-16T10:40:33;784.33;;;745.40;;
51987;SDS011;38003;52.012;4.346;2024-02-16T10:43:03;784.60;;;745.90;;
51987;SDS011;38003;52.012;4.346;2024-02-16T10:45:33;787.03;;;748.30;;
51987;SDS011;38003;52.012;4.346;2024-02-16T10:48:04;806.33;;;765.70;;
51987;SDS011;38003;52.012;4.346;2024-02-16T10:50:34;796.33;;;756.57;;
51987;SDS011;38003;52.012;4.346;2024-02-16T10:53:04;826.43;;;783.47;;
51987;SDS011;38003;52.012;4.346;2024-02-16T10:55:33;833.07;;;788.97;;
51987;SDS011;38003;52.012;4.346;2024-02-16T10:58:01;820.13;;;777.00;;
51987;SDS011;38003;52.012;4.346;2024-02-16T11:00:30;831.53;;;788.47;;
51987;SDS011;38003;52.012;4.346;2024-02-16T11:02:58;817.70;;;776.63;;
51987;SDS011;38003;52.012;4.346;2024-02-16T11:05:34;804.17;;;765.13;;
51987;SDS011;38003;52.012;4.346;2024-02-16T11:08:03;828.50;;;786.50;;
51987;SDS011;38003;52.012;4.346;2024-02-16T11:10:32;839.60;;;795.60;;
51987;SDS011;38003;52.012;4.346;2024-02-16T11:13:01;863.13;;;815.90;;
51987;SDS011;38003;52.012;4.346;2024-02-16T11:15:31;872.63;;;824.17;;
51987;SDS011;38003;52.012;4.346;2024-02-16T11:18:00;857.10;;;811.17;;
51987;SDS011;38003;52.012;4.346;2024-02-16T11:20:28;864.47;;;817.73;;
51987;SDS011;38003;52.012;4.346;2024-02-16T11:23:05;866.17;;;818.90;;
51987;SDS011;38003;52.012;4.346;2024-02-16T11:25:34;862.37;;;815.60;;
51987;SDS011;38003;52.012;4.346;2024-02-16T11:28:02;864.30;;;816.90;;
51987;SDS011;38003;52.012;4.346;2024-02-16T11:30:32;870.23;;;821.63;;
51987;SDS011;38003;52.012;4.346;2024-02-16T11:33:01;861.20;;;814.13;;
51987;SDS011;38003;52.012;4.346;2024-02-16T11:35:31;852.47;;;806.50;;
51987;SDS011;38003;52.012;4.346;2024-02-16T11:37:59;860.63;;;813.90;;
51987;SDS011;38003;52.012;4.346;2024-02-16T11:40:30;859.97;;;813.63;;
51987;SDS011;38003;52.012;4.346;2024-02-16T11:42:58;878.83;;;830.90;;
51987;SDS011;38003;52.012;4.346;2024-02-16T11:45:26;895.37;;;843.97;;
51987;SDS011;38003;52.012;4.346;2024-02-16T11:48:05;900.40;;;848.63;;
51987;SDS011;38003;52.012;4.346;2024-02-16T11:50:33;906.07;;;853.23;;
51987;SDS011;38003;52.012;4.346;2024-02-16T11:53:02;908.30;;;853.43;;
51987;SDS011;38003;52.012;4.346;2024-02-16T11:55:31;898.17;;;845.47;;
51987;SDS011;38003;52.012;4.346;2024-02-16T11:58:01;893.40;;;840.43;;
51987;SDS011;38003;52.012;4.346;2024-02-16T12:00:29;884.53;;;833.00;;
51987;SDS011;38003;52.012;4.346;2024-02-16T12:03:01;885.07;;;832.97;;
51987;SDS011;38003;52.012;4.346;2024-02-16T12:05:29;893.67;;;840.03;;
51987;SDS011;38003;52.012;4.346;2024-02-16T12:07:57;892.70;;;838.73;;
51987;SDS011;38003;52.012;4.346;2024-02-16T12:10:26;900.63;;;844.97;;
51987;SDS011;38003;52.012;4.346;2024-02-16T12:12:56;904.30;;;849.10;;
51987;SDS011;38003;52.012;4.346;2024-02-16T12:15:29;896.97;;;843.13;;
51987;SDS011;38003;52.012;4.346;2024-02-16T12:17:58;899.53;;;846.80;;
51987;SDS011;38003;52.012;4.346;2024-02-16T12:20:27;887.90;;;836.70;;
51987;SDS011;38003;52.012;4.346;2024-02-16T12:22:55;887.63;;;836.23;;
51987;SDS011;38003;52.012;4.346;2024-02-16T12:25:25;900.80;;;845.63;;
51987;SDS011;38003;52.012;4.346;2024-02-16T12:27:53;901.23;;;845.57;;
51987;SDS011;38003;52.012;4.346;2024-02-16T12:30:23;909.03;;;853.93;;
51987;SDS011;38003;52.012;4.346;2024-02-16T12:32:51;909.50;;;855.37;;
51987;SDS011;38003;52.012;4.346;2024-02-16T12:35:20;895.27;;;844.17;;
51987;SDS011;38003;52.012;4.346;2024-02-16T12:37:48;902.17;;;848.67;;
51987;SDS011;38003;52.012;4.346;2024-02-16T12:40:17;908.70;;;853.90;;
51987;SDS011;38003;52.012;4.346;2024-02-16T12:42:45;912.70;;;859.10;;
51987;SDS011;38003;52.012;4.346;2024-02-16T12:45:14;911.90;;;855.43;;
51987;SDS011;38003;52.012;4.346;2024-02-16T12:47:44;917.03;;;860.83;;
51987;SDS011;38003;52.012;4.346;2024-02-16T12:50:13;905.27;;;851.80;;
51987;SDS011;38003;52.012;4.346;2024-02-16T12:52:42;909.63;;;856.83;;
51987;SDS011;38003;52.012;4.346;2024-02-16T12:55:20;910.33;;;858.07;;
51987;SDS011;38003;52.012;4.346;2024-02-16T12:57:48;903.23;;;852.07;;
51987;SDS011;38003;52.012;4.346;2024-02-16T13:00:17;885.10;;;837.47;;
51987;SDS011;38003;52.012;4.346;2024-02-16T13:02:47;882.23;;;835.60;;
51987;SDS011;38003;52.012;4.346;2024-02-16T13:05:15;908.20;;;857.40;;
51987;SDS011;38003;52.012;4.346;2024-02-16T13:07:44;894.97;;;846.90;;
51987;SDS011;38003;52.012;4.346;2024-02-16T13:10:12;906.90;;;856.33;;
51987;SDS011;38003;52.012;4.346;2024-02-16T13:12:41;898.37;;;849.30;;
51987;SDS011;38003;52.012;4.346;2024-02-16T13:15:10;843.27;;;803.27;;
51987;SDS011;38003;52.012;4.346;2024-02-16T13:17:54;806.90;;;771.20;;
51987;SDS011;38003;52.012;4.346;2024-02-16T13:20:23;805.60;;;769.57;;
51987;SDS011;38003;52.012;4.346;2024-02-16T13:22:51;773.17;;;740.03;;
51987;SDS011;38003;52.012;4.346;2024-02-16T13:25:20;796.87;;;761.83;;
51987;SDS011;38003;52.012;4.346;2024-02-16T13:27:48;758.00;;;725.60;;
51987;SDS011;38003;52.012;4.346;2024-02-16T13:30:16;773.77;;;740.00;;
51987;SDS011;38003;52.012;4.346;2024-02-16T13:32:45;738.43;;;707.37;;
51987;SDS011;38003;52.012;4.346;2024-02-16T13:35:14;693.77;;;665.50;;
51987;SDS011;38003;52.012;4.346;2024-02-16T13:37:47;638.47;;;612.70;;
51987;SDS011;38003;52.012;4.346;2024-02-16T13:40:15;719.80;;;689.47;;
51987;SDS011;38003;52.012;4.346;2024-02-16T13:42:44;665.87;;;638.80;;
51987;SDS011;38003;52.012;4.346;2024-02-16T13:45:12;632.10;;;606.70;;
51987;SDS011;38003;52.012;4.346;2024-02-16T13:47:41;572.10;;;549.53;;
51987;SDS011;38003;52.012;4.346;2024-02-16T13:50:10;541.93;;;520.50;;
51987;SDS011;38003;52.012;4.346;2024-02-16T13:52:39;543.53;;;521.97;;
51987;SDS011;38003;52.012;4.346;2024-02-16T13:55:08;571.90;;;548.93;;
51987;SDS011;38003;52.012;4.346;2024-02-16T13:57:36;548.87;;;527.20;;
51987;SDS011;38003;52.012;4.346;2024-02-16T14:00:06;433.97;;;416.77;;
51987;SDS011;38003;52.012;4.346;2024-02-16T14:02:34;544.67;;;522.87;;
51987;SDS011;38003;52.012;4.346;2024-02-16T14:05:03;511.17;;;490.87;;
51987;SDS011;38003;52.012;4.346;2024-02-16T14:07:31;407.53;;;391.17;;
51987;SDS011;38003;52.012;4.346;2024-02-16T14:10:13;270.37;;;259.73;;
51987;SDS011;38003;52.012;4.346;2024-02-16T14:12:41;260.83;;;250.67;;
51987;SDS011;38003;52.012;4.346;2024-02-16T14:15:10;260.77;;;250.53;;
51987;SDS011;38003;52.012;4.346;2024-02-16T14:17:42;222.10;;;213.17;;
51987;SDS011;38003;52.012;4.346;2024-02-16T14:20:10;192.23;;;184.33;;
51987;SDS011;38003;52.012;4.346;2024-02-16T14:22:39;233.80;;;224.30;;
51987;SDS011;38003;52.012;4.346;2024-02-16T14:25:08;148.07;;;141.67;;
51987;SDS011;38003;52.012;4.346;2024-02-16T14:27:38;184.60;;;176.77;;
51987;SDS011;38003;52.012;4.346;2024-02-16T14:30:08;136.20;;;130.40;;
51987;SDS011;38003;52.012;4.346;2024-02-16T14:32:37;90.57;;;86.53;;
51987;SDS011;38003;52.012;4.346;2024-02-16T14:35:05;81.00;;;77.13;;